This is the latest recevied weather packets stored in our database for station/object N7TUG. If no packets are shown the sender has not sent any weather packets the latest 10 day(s).
| Time | Temp. | Humidity | Pressure | Rain* | Wind** | Luminosity | Snow |
|---|---|---|---|---|---|---|---|
| 1777424716 | 15.56° C | 65% | 1022.9 hPa | 0 mm | - | 76 W/m² | - |
| 1777418115 | 15° C | 66% | 1022.6 hPa | 0 mm | - | 209 W/m² | - |
| 1777417514 | 14.44° C | 67% | 1022.6 hPa | 0 mm | - | 242 W/m² | - |
| 1777410935 | 13.89° C | 68% | 1022.7 hPa | 0 mm | - | 293 W/m² | - |
| 1777406115 | 12.78° C | 76% | 1022.8 hPa | 0 mm | - | 277 W/m² | - |
| 1777405515 | 12.78° C | 75% | 1022.8 hPa | 0 mm | - | 251 W/m² | - |
| 1777404916 | 12.78° C | 76% | 1022.8 hPa | 0 mm | - | 234 W/m² | - |
| 1777401336 | 12.22° C | 79% | 1022.5 hPa | 0 mm | - | 221 W/m² | - |
| 1777399516 | 11.67° C | 82% | 1022.4 hPa | 0 mm | - | 169 W/m² | - |
| 1777397715 | 11.67° C | 82% | 1022.2 hPa | 0 mm | - | 142 W/m² | - |
| 1777395316 | 11.11° C | 84% | 1022.1 hPa | 0 mm | - | 137 W/m² | - |
| 1777390515 | 10.56° C | 90% | 1021.6 hPa | 0 mm | - | 62 W/m² | - |
| 1777383915 | 10° C | 90% | 1020.7 hPa | 0 mm | - | 31 W/m² | - |
| 1777378515 | 9.44° C | 89% | 1020.1 hPa | 0 mm | - | 18 W/m² | - |
| 1777373116 | 10.56° C | 81% | 1019.6 hPa | 0 mm | - | 18 W/m² | - |
| 1777371916 | 10.56° C | 81% | 1019.5 hPa | 0 mm | - | 18 W/m² | - |
| 1777370715 | 10° C | 82% | 1019.5 hPa | 0 mm | - | 18 W/m² | - |
| 1777366515 | 10.56° C | 82% | 1019.8 hPa | 0 mm | - | 18 W/m² | - |
| 1777365915 | 10.56° C | 82% | 1019.9 hPa | 0 mm | - | 18 W/m² | - |
| 1777352116 | 12.22° C | 75% | 1018.4 hPa | 0 mm | - | 18 W/m² | - |
| 1777350315 | 12.22° C | 73% | 1018.4 hPa | 0 mm | - | 18 W/m² | - |
| 1777345535 | 13.89° C | 70% | 1017.4 hPa | 0 mm | - | 24 W/m² | - |
| 1777343716 | 15° C | 68% | 1017.3 hPa | 0 mm | - | 39 W/m² | - |
| 1777338915 | 14.44° C | 71% | 1016.6 hPa | 0 mm | - | 143 W/m² | - |
| 1777335935 | 14.44° C | 73% | 1016.6 hPa | 0 mm | - | 163 W/m² | - |
* Rain latest hour (hover to see other rain measurements)
** Current wind speed in m/s (hover to see current wind gust speed)